createdAt,value
2023-03-16T00:00:13.896Z,37.10
2023-03-16T00:03:03.670Z,35.90
2023-03-16T00:05:32.093Z,33.13
2023-03-16T00:08:00.257Z,33.50
2023-03-16T00:10:28.439Z,33.85
2023-03-16T00:12:57.916Z,33.47
2023-03-16T00:15:25.827Z,35.13
2023-03-16T00:17:54.818Z,30.55
2023-03-16T00:20:24.153Z,32.47
2023-03-16T00:22:52.323Z,33.17
2023-03-16T00:25:20.226Z,33.00
2023-03-16T00:27:48.396Z,31.92
2023-03-16T00:30:16.423Z,33.72
2023-03-16T00:32:44.894Z,32.95
2023-03-16T00:35:12.862Z,33.35
2023-03-16T00:37:43.577Z,33.95
2023-03-16T00:40:13.612Z,31.52
2023-03-16T00:42:41.942Z,32.70
2023-03-16T00:45:11.902Z,31.60
2023-03-16T00:47:40.097Z,33.88
2023-03-16T00:50:08.802Z,33.78
2023-03-16T00:52:37.125Z,34.72
2023-03-16T00:55:08.491Z,34.50
2023-03-16T00:57:36.691Z,32.05
2023-03-16T01:00:12.790Z,33.88
2023-03-16T01:02:41.116Z,34.17
2023-03-16T01:05:10.310Z,31.70
2023-03-16T01:07:38.646Z,32.38
2023-03-16T01:10:10.035Z,31.38
2023-03-16T01:12:38.193Z,32.70
2023-03-16T01:15:07.163Z,32.47
2023-03-16T01:17:35.421Z,33.35
2023-03-16T01:20:05.166Z,31.15
2023-03-16T01:22:33.784Z,32.33
2023-03-16T01:25:01.955Z,34.13
2023-03-16T01:27:31.460Z,32.67
2023-03-16T01:30:00.151Z,35.10
2023-03-16T01:32:28.565Z,37.80
2023-03-16T01:34:56.492Z,38.80
2023-03-16T01:37:24.844Z,38.10
2023-03-16T01:39:53.045Z,39.42
2023-03-16T01:42:21.200Z,38.78
2023-03-16T01:44:55.833Z,38.63
2023-03-16T01:47:24.613Z,42.67
2023-03-16T01:49:55.019Z,39.72
2023-03-16T01:52:25.664Z,42.78
2023-03-16T01:54:57.139Z,41.40
2023-03-16T01:57:29.132Z,36.85
2023-03-16T02:00:19.466Z,39.65
2023-03-16T02:02:50.046Z,39.10
2023-03-16T02:05:23.007Z,36.13
2023-03-16T02:07:58.536Z,41.38
2023-03-16T02:10:29.316Z,40.92
2023-03-16T02:12:58.586Z,40.25
2023-03-16T02:15:28.159Z,41.17
2023-03-16T02:17:57.965Z,43.20
2023-03-16T02:20:35.210Z,41.78
2023-03-16T02:23:05.577Z,41.60
2023-03-16T02:25:40.298Z,43.10
2023-03-16T02:28:13.395Z,43.42
2023-03-16T02:30:42.873Z,43.97
2023-03-16T02:33:11.421Z,43.85
2023-03-16T02:35:39.360Z,41.50
2023-03-16T02:38:07.656Z,42.85
2023-03-16T02:40:36.643Z,41.10
2023-03-16T02:43:08.913Z,40.10
2023-03-16T02:45:43.513Z,40.67
2023-03-16T02:48:15.086Z,39.88
2023-03-16T02:50:47.995Z,37.37
2023-03-16T02:53:16.613Z,37.70
2023-03-16T02:55:45.797Z,38.22
2023-03-16T02:58:14.530Z,35.60
2023-03-16T03:00:45.272Z,37.92
2023-03-16T03:03:14.109Z,36.10
2023-03-16T03:05:42.125Z,39.15
2023-03-16T03:08:10.521Z,35.30
2023-03-16T03:10:38.670Z,38.00
2023-03-16T03:13:07.604Z,38.22
2023-03-16T03:15:35.637Z,36.35
2023-03-16T03:18:05.342Z,36.63
2023-03-16T03:20:33.636Z,37.20
2023-03-16T03:23:02.994Z,37.03
2023-03-16T03:25:34.665Z,36.22
2023-03-16T03:28:05.429Z,35.88
2023-03-16T03:30:33.677Z,36.95
2023-03-16T03:33:02.677Z,36.08
2023-03-16T03:35:32.082Z,34.58
2023-03-16T03:38:00.267Z,37.30
2023-03-16T03:40:28.797Z,35.28
2023-03-16T03:42:57.339Z,34.42
2023-03-16T03:45:25.490Z,36.90
2023-03-16T03:47:55.012Z,35.30
2023-03-16T03:50:23.537Z,33.97
2023-03-16T03:52:53.040Z,35.70
2023-03-16T03:55:20.926Z,35.88
2023-03-16T03:57:49.228Z,35.60
2023-03-16T04:00:20.784Z,33.25
2023-03-16T04:02:49.652Z,34.95
2023-03-16T04:05:17.818Z,34.45
2023-03-16T04:07:45.981Z,35.53
2023-03-16T04:10:15.222Z,33.65
2023-03-16T04:12:43.622Z,36.50
2023-03-16T04:15:12.976Z,35.70
2023-03-16T04:17:41.192Z,33.70
2023-03-16T04:20:14.587Z,34.10
2023-03-16T04:22:43.475Z,35.58
2023-03-16T04:25:11.658Z,30.90
2023-03-16T04:27:41.247Z,36.47
2023-03-16T04:30:12.032Z,36.35
2023-03-16T04:32:40.547Z,34.97
2023-03-16T04:35:09.282Z,34.20
2023-03-16T04:37:38.050Z,38.22
2023-03-16T04:40:14.439Z,34.47
2023-03-16T04:42:44.552Z,38.75
2023-03-16T04:45:14.010Z,39.15
2023-03-16T04:47:42.189Z,37.97
2023-03-16T04:50:12.245Z,36.67
2023-03-16T04:52:41.175Z,35.97
2023-03-16T04:55:09.622Z,37.33
2023-03-16T04:57:37.921Z,38.72
2023-03-16T05:00:11.760Z,37.85
2023-03-16T05:02:40.322Z,37.70
2023-03-16T05:05:09.040Z,37.50
2023-03-16T05:07:37.275Z,37.38
2023-03-16T05:10:05.739Z,37.30
2023-03-16T05:12:33.908Z,38.33
2023-03-16T05:15:02.085Z,37.75
2023-03-16T05:17:31.671Z,37.72
2023-03-16T05:19:59.600Z,35.15
2023-03-16T05:22:27.843Z,37.05
2023-03-16T05:24:55.892Z,37.40
2023-03-16T05:27:24.625Z,37.17
2023-03-16T05:29:52.550Z,36.40
2023-03-16T05:32:20.907Z,37.53
2023-03-16T05:34:50.134Z,35.70
2023-03-16T05:37:19.058Z,36.38
2023-03-16T05:39:46.990Z,35.72
2023-03-16T05:42:15.162Z,35.53
2023-03-16T05:44:44.815Z,36.30
2023-03-16T05:47:13.656Z,34.25
2023-03-16T05:49:41.776Z,33.10
2023-03-16T05:52:11.347Z,32.17
2023-03-16T05:54:39.839Z,31.45
2023-03-16T05:57:08.063Z,31.30
2023-03-16T05:59:36.136Z,29.63
2023-03-16T06:02:04.752Z,30.70
2023-03-16T06:04:32.714Z,30.52
2023-03-16T06:07:01.003Z,27.13
2023-03-16T06:09:30.701Z,27.02
2023-03-16T06:11:58.886Z,27.25
2023-03-16T06:14:26.868Z,51.00
2023-03-16T06:16:55.154Z,29.85
2023-03-16T06:19:23.455Z,28.10
2023-03-16T06:21:51.690Z,26.48
2023-03-16T06:24:19.662Z,26.75
2023-03-16T06:26:49.266Z,27.75
2023-03-16T06:29:17.250Z,30.63
2023-03-16T06:31:45.697Z,31.20
2023-03-16T06:34:13.656Z,32.85
2023-03-16T06:36:41.833Z,33.88
2023-03-16T06:39:09.774Z,35.67
2023-03-16T06:41:38.423Z,36.53
2023-03-16T06:44:07.711Z,35.88
2023-03-16T06:46:35.948Z,37.38
2023-03-16T06:49:04.345Z,41.03
2023-03-16T06:51:32.841Z,39.22
2023-03-16T06:54:01.413Z,42.05
2023-03-16T06:56:31.671Z,41.85
2023-03-16T06:58:59.617Z,37.80
2023-03-16T07:01:29.737Z,36.05
2023-03-16T07:03:57.691Z,38.28
2023-03-16T07:06:26.796Z,45.88
2023-03-16T07:09:01.444Z,41.97
2023-03-16T07:11:30.938Z,41.08
2023-03-16T07:13:59.599Z,36.63
2023-03-16T07:16:29.782Z,40.47
2023-03-16T07:18:58.040Z,37.85
2023-03-16T07:21:28.195Z,35.75
2023-03-16T07:23:56.559Z,36.42
2023-03-16T07:26:25.329Z,39.28
2023-03-16T07:28:53.424Z,36.75
2023-03-16T07:31:21.956Z,37.38
2023-03-16T07:33:52.061Z,37.30
2023-03-16T07:36:21.565Z,37.57
2023-03-16T07:38:51.441Z,37.90
2023-03-16T07:41:20.230Z,37.80
2023-03-16T07:43:48.749Z,43.50
2023-03-16T07:46:17.476Z,42.85
2023-03-16T07:48:46.406Z,39.47
2023-03-16T07:51:21.366Z,44.05
2023-03-16T07:53:49.556Z,44.65
2023-03-16T07:56:17.998Z,40.40
2023-03-16T07:58:46.427Z,37.85
2023-03-16T08:01:14.924Z,34.65
2023-03-16T08:03:44.580Z,36.63
2023-03-16T08:06:15.887Z,34.33
2023-03-16T08:08:45.374Z,31.98
2023-03-16T08:11:13.899Z,34.15
2023-03-16T08:13:43.974Z,32.53
2023-03-16T08:16:13.397Z,33.78
2023-03-16T08:18:42.335Z,34.05
2023-03-16T08:21:13.100Z,28.25
2023-03-16T08:23:42.014Z,31.35
2023-03-16T08:26:11.819Z,29.10
2023-03-16T08:28:39.979Z,28.80
2023-03-16T08:31:09.652Z,28.42
2023-03-16T08:33:38.553Z,25.02
2023-03-16T08:36:07.678Z,27.02
2023-03-16T08:38:36.068Z,27.13
2023-03-16T08:41:04.876Z,27.77
2023-03-16T08:43:35.239Z,26.38
2023-03-16T08:46:05.371Z,20.83
2023-03-16T08:48:34.638Z,23.05
2023-03-16T08:51:05.819Z,24.20
2023-03-16T08:53:36.692Z,23.00
2023-03-16T08:56:07.247Z,19.92
2023-03-16T08:58:37.408Z,21.35
2023-03-16T09:01:09.074Z,20.98
2023-03-16T09:03:37.705Z,24.02
2023-03-16T09:06:11.196Z,19.25
2023-03-16T09:08:40.068Z,19.00
2023-03-16T09:11:10.207Z,19.67
2023-03-16T09:13:40.202Z,20.23
2023-03-16T09:16:13.038Z,21.13
2023-03-16T09:18:42.143Z,18.08
2023-03-16T09:21:25.914Z,19.05
2023-03-16T09:24:00.310Z,19.85
2023-03-16T09:26:29.909Z,21.55
2023-03-16T09:29:00.704Z,14.50
2023-03-16T09:31:29.153Z,18.33
2023-03-16T09:34:00.614Z,13.38
2023-03-16T09:36:28.841Z,15.75
2023-03-16T09:39:03.163Z,15.15
2023-03-16T09:41:42.825Z,14.27
2023-03-16T09:44:24.008Z,15.48
2023-03-16T09:46:54.621Z,10.48
2023-03-16T09:49:27.719Z,11.25
2023-03-16T09:52:01.189Z,13.77
2023-03-16T09:54:39.345Z,14.05
2023-03-16T09:57:16.191Z,10.60
2023-03-16T09:59:46.964Z,13.07
2023-03-16T10:02:51.050Z,7.50
2023-03-16T10:05:24.109Z,12.45
2023-03-16T10:07:59.435Z,11.75
2023-03-16T10:10:38.489Z,8.00
2023-03-16T10:13:10.719Z,7.38
2023-03-16T10:15:42.260Z,9.68
2023-03-16T10:18:15.062Z,7.90
2023-03-16T10:20:48.002Z,5.00
2023-03-16T10:23:19.429Z,5.97
2023-03-16T10:25:51.910Z,6.68
2023-03-16T10:28:21.710Z,6.95
2023-03-16T10:30:54.688Z,5.55
2023-03-16T10:33:25.832Z,3.30
2023-03-16T10:35:59.524Z,3.95
2023-03-16T10:38:30.539Z,6.25
2023-03-16T10:41:00.832Z,6.03
2023-03-16T10:43:32.103Z,6.95
2023-03-16T10:46:03.886Z,8.23
2023-03-16T10:48:34.858Z,8.25
2023-03-16T10:51:09.221Z,8.50
2023-03-16T10:53:41.152Z,8.60
2023-03-16T10:56:13.494Z,9.55
2023-03-16T10:58:43.545Z,8.57
2023-03-16T11:01:16.722Z,9.07
2023-03-16T11:03:52.026Z,8.93
2023-03-16T11:06:24.826Z,10.00
2023-03-16T11:08:54.917Z,9.73
2023-03-16T11:11:28.562Z,8.50
2023-03-16T11:13:59.555Z,8.75
2023-03-16T11:16:37.115Z,7.10
2023-03-16T11:19:18.941Z,6.78
2023-03-16T11:21:57.612Z,6.32
2023-03-16T11:24:31.344Z,7.68
2023-03-16T11:27:03.165Z,7.13
2023-03-16T11:29:42.477Z,8.30
2023-03-16T11:32:15.700Z,7.80
2023-03-16T11:34:46.638Z,7.88
2023-03-16T11:37:21.925Z,8.63
2023-03-16T11:39:58.387Z,10.10
2023-03-16T11:42:32.131Z,8.95
2023-03-16T11:45:07.643Z,8.98
2023-03-16T11:48:01.801Z,5.13
2023-03-16T11:50:36.090Z,5.10
2023-03-16T11:53:14.558Z,4.75
2023-03-16T11:55:46.681Z,6.68
2023-03-16T11:58:29.453Z,8.05
2023-03-16T12:01:02.775Z,7.13
2023-03-16T12:03:53.880Z,6.75
2023-03-16T12:06:29.722Z,6.38
2023-03-16T12:09:16.178Z,5.45
2023-03-16T12:11:50.387Z,5.20
2023-03-16T12:14:37.509Z,5.60
2023-03-16T12:17:13.091Z,5.30
2023-03-16T12:19:47.151Z,5.03
2023-03-16T12:22:21.483Z,5.32
2023-03-16T12:24:50.548Z,5.40
2023-03-16T12:27:24.006Z,6.03
2023-03-16T12:30:03.525Z,5.65
2023-03-16T12:32:42.810Z,5.80
2023-03-16T12:35:25.495Z,6.00
2023-03-16T12:38:01.553Z,5.30
2023-03-16T12:40:35.590Z,4.50
2023-03-16T12:43:14.540Z,4.53
2023-03-16T12:45:52.210Z,3.85
2023-03-16T12:48:27.156Z,4.22
2023-03-16T12:50:59.723Z,4.00
2023-03-16T12:53:40.438Z,3.65
2023-03-16T12:56:10.189Z,4.57
2023-03-16T12:58:43.514Z,5.20
2023-03-16T13:01:15.377Z,5.85
2023-03-16T13:03:45.589Z,5.40
2023-03-16T13:06:24.163Z,5.38
2023-03-16T13:08:56.798Z,5.07
2023-03-16T13:14:12.725Z,5.05
2023-03-16T13:16:41.637Z,5.13
2023-03-16T13:19:27.334Z,5.00
2023-03-16T13:22:07.251Z,5.00
2023-03-16T13:24:41.214Z,4.95
2023-03-16T13:27:22.429Z,4.95
2023-03-16T13:32:28.784Z,5.55
2023-03-16T13:35:00.031Z,5.88
2023-03-16T13:37:30.952Z,4.90
2023-03-16T13:40:00.941Z,5.68
2023-03-16T13:42:31.632Z,5.38
2023-03-16T13:45:12.472Z,5.32
2023-03-16T13:47:43.619Z,4.38
2023-03-16T13:50:13.902Z,6.32
2023-03-16T13:52:44.699Z,5.38
2023-03-16T13:55:16.789Z,4.78
2023-03-16T13:57:46.834Z,5.88
2023-03-16T14:00:20.122Z,4.18
2023-03-16T14:02:49.333Z,8.05
2023-03-16T14:05:20.135Z,4.05
2023-03-16T14:07:50.899Z,5.53
2023-03-16T14:10:19.709Z,4.30
2023-03-16T14:12:54.809Z,3.55
2023-03-16T14:15:27.260Z,8.35
2023-03-16T14:18:09.696Z,5.97
2023-03-16T14:23:19.260Z,4.95
2023-03-16T14:25:49.411Z,4.30
2023-03-16T14:28:18.573Z,4.75
2023-03-16T14:30:53.883Z,4.78
2023-03-16T14:33:29.886Z,4.50
2023-03-16T14:35:59.603Z,5.35
2023-03-16T14:38:35.323Z,5.70
2023-03-16T14:41:08.013Z,6.03
2023-03-16T14:43:38.567Z,4.47
2023-03-16T14:46:10.831Z,4.18
2023-03-16T14:48:39.235Z,3.27
2023-03-16T14:51:07.989Z,3.42
2023-03-16T14:53:37.449Z,4.43
2023-03-16T14:56:10.954Z,6.15
2023-03-16T14:58:39.307Z,3.88
2023-03-16T15:01:08.504Z,3.50
2023-03-16T15:03:37.961Z,3.00
2023-03-16T15:06:06.641Z,3.50
2023-03-16T15:08:43.476Z,3.58
2023-03-16T15:11:12.109Z,2.42
2023-03-16T15:14:04.001Z,3.75
2023-03-16T15:16:32.851Z,4.45
2023-03-16T15:19:00.880Z,4.80
2023-03-16T15:21:32.728Z,2.95
2023-03-16T15:24:02.296Z,3.05
2023-03-16T15:26:30.805Z,3.25
2023-03-16T15:28:59.419Z,2.55
2023-03-16T15:31:27.721Z,3.70
2023-03-16T15:33:55.705Z,2.88
2023-03-16T15:36:24.786Z,5.20
2023-03-16T15:38:54.813Z,4.57
2023-03-16T15:41:26.920Z,4.80
2023-03-16T15:44:00.731Z,3.20
2023-03-16T15:46:29.185Z,4.07
2023-03-16T15:48:57.146Z,3.75
2023-03-16T15:51:28.269Z,3.60
2023-03-16T15:53:58.700Z,8.45
2023-03-16T15:56:30.269Z,9.93
2023-03-16T15:59:00.365Z,5.90
2023-03-16T16:01:31.997Z,4.80
2023-03-16T16:04:00.109Z,4.13
2023-03-16T16:06:28.563Z,3.58
2023-03-16T16:08:56.595Z,4.15
2023-03-16T16:11:26.281Z,4.28
2023-03-16T16:13:56.893Z,4.35
2023-03-16T16:16:29.555Z,3.92
2023-03-16T16:18:58.342Z,3.90
2023-03-16T16:21:30.896Z,3.75
2023-03-16T16:26:41.573Z,4.93
2023-03-16T16:29:18.231Z,13.30
2023-03-16T16:31:46.632Z,12.40
2023-03-16T16:34:15.899Z,20.02
2023-03-16T16:36:44.517Z,3.88
2023-03-16T16:39:12.789Z,4.15
2023-03-16T16:41:41.792Z,19.35
2023-03-16T16:44:18.636Z,12.23
2023-03-16T16:46:47.192Z,9.25
2023-03-16T16:49:16.527Z,10.95
2023-03-16T16:51:44.726Z,12.30
2023-03-16T16:54:16.644Z,7.63
2023-03-16T16:56:46.200Z,7.03
2023-03-16T16:59:18.890Z,6.43
2023-03-16T17:01:47.992Z,8.63
2023-03-16T17:04:18.344Z,6.40
2023-03-16T17:06:47.933Z,8.18
2023-03-16T17:09:16.586Z,7.22
2023-03-16T17:11:45.356Z,8.77
2023-03-16T17:14:18.949Z,9.57
2023-03-16T17:16:48.546Z,8.80
2023-03-16T17:19:21.299Z,8.43
2023-03-16T17:21:49.843Z,9.60
2023-03-16T17:24:17.977Z,11.02
2023-03-16T17:26:48.941Z,13.10
2023-03-16T17:29:22.517Z,15.02
2023-03-16T17:31:52.040Z,14.60
2023-03-16T17:34:21.497Z,13.35
2023-03-16T17:36:50.159Z,10.65
2023-03-16T17:39:20.900Z,9.95
2023-03-16T17:41:49.899Z,9.88
2023-03-16T17:44:21.342Z,8.93
2023-03-16T17:46:49.620Z,9.98
2023-03-16T17:49:19.880Z,9.05
2023-03-16T17:51:49.026Z,9.90
2023-03-16T17:54:17.054Z,10.50
2023-03-16T17:56:46.291Z,9.35
2023-03-16T17:59:18.122Z,9.40
2023-03-16T18:01:48.445Z,9.80
2023-03-16T18:04:21.094Z,11.02
2023-03-16T18:06:49.803Z,12.73
2023-03-16T18:09:18.749Z,15.70
2023-03-16T18:11:49.988Z,17.35
2023-03-16T18:14:25.382Z,15.23
2023-03-16T18:16:55.581Z,14.50
2023-03-16T18:19:25.559Z,15.52
2023-03-16T18:21:54.575Z,16.50
2023-03-16T18:24:25.746Z,17.25
2023-03-16T18:26:55.215Z,18.00
2023-03-16T18:29:23.970Z,16.55
2023-03-16T18:31:55.433Z,17.00
2023-03-16T18:34:24.702Z,17.30
2023-03-16T18:36:54.922Z,16.75
2023-03-16T18:39:23.299Z,19.30
2023-03-16T18:41:51.659Z,25.77
2023-03-16T18:44:21.521Z,20.60
2023-03-16T18:46:50.467Z,22.35
2023-03-16T18:49:22.713Z,20.60
2023-03-16T18:51:53.923Z,25.10
2023-03-16T18:54:23.609Z,31.00
2023-03-16T18:56:53.741Z,28.17
2023-03-16T18:59:22.149Z,27.98
2023-03-16T19:01:50.382Z,25.27
2023-03-16T19:04:22.695Z,24.52
2023-03-16T19:06:52.022Z,25.45
2023-03-16T19:09:22.191Z,25.13
2023-03-16T19:11:51.085Z,25.60
2023-03-16T19:14:22.508Z,25.13
2023-03-16T19:16:51.568Z,24.25
2023-03-16T19:19:22.658Z,22.35
2023-03-16T19:21:52.661Z,22.88
2023-03-16T19:24:23.918Z,24.40
2023-03-16T19:26:52.283Z,27.53
2023-03-16T19:29:21.233Z,27.67
2023-03-16T19:31:49.782Z,28.20
2023-03-16T19:34:18.530Z,22.33
2023-03-16T19:36:48.293Z,24.25
2023-03-16T19:39:17.928Z,22.63
2023-03-16T19:41:47.702Z,25.48
2023-03-16T19:44:17.830Z,27.10
2023-03-16T19:46:46.614Z,29.58
2023-03-16T19:49:17.011Z,31.02
2023-03-16T19:51:45.366Z,29.83
2023-03-16T19:54:22.595Z,28.00
2023-03-16T19:56:51.591Z,27.88
2023-03-16T19:59:20.413Z,25.15
2023-03-16T20:01:49.033Z,25.90
2023-03-16T20:04:23.897Z,23.63
2023-03-16T20:06:53.631Z,26.23
2023-03-16T20:09:23.135Z,20.45
2023-03-16T20:11:52.018Z,22.13
2023-03-16T20:14:21.343Z,26.33
2023-03-16T20:16:49.568Z,27.17
2023-03-16T20:19:17.583Z,28.25
2023-03-16T20:21:46.123Z,28.35
2023-03-16T20:24:16.357Z,27.15
2023-03-16T20:26:46.899Z,27.23
2023-03-16T20:29:18.984Z,27.73
2023-03-16T20:34:21.755Z,30.83
2023-03-16T20:36:50.379Z,30.85
2023-03-16T20:39:18.347Z,33.33
2023-03-16T20:41:48.048Z,31.58
2023-03-16T20:44:18.302Z,32.08
2023-03-16T20:46:47.619Z,31.85
2023-03-16T20:49:31.009Z,38.55
2023-03-16T20:51:59.339Z,38.85
2023-03-16T20:54:27.266Z,42.92
2023-03-16T20:56:56.805Z,43.75
2023-03-16T20:59:26.429Z,43.03
2023-03-16T21:01:55.569Z,45.05
2023-03-16T21:04:26.155Z,41.63
2023-03-16T21:06:54.417Z,43.17
2023-03-16T21:09:22.465Z,41.60
2023-03-16T21:11:50.830Z,41.45
2023-03-16T21:14:22.937Z,41.20
2023-03-16T21:19:21.216Z,41.17
2023-03-16T21:21:49.791Z,42.65
2023-03-16T21:24:17.772Z,42.17
2023-03-16T21:26:47.326Z,41.13
2023-03-16T21:29:17.265Z,42.65
2023-03-16T21:31:48.373Z,43.03
2023-03-16T21:34:23.850Z,41.33
2023-03-16T21:36:52.558Z,42.00
2023-03-16T21:39:22.454Z,43.50
2023-03-16T21:41:51.090Z,44.05
2023-03-16T21:44:19.573Z,46.58
2023-03-16T21:46:49.629Z,45.55
2023-03-16T21:49:17.918Z,44.33
2023-03-16T21:51:46.162Z,42.80
2023-03-16T21:54:15.624Z,38.15
2023-03-16T21:56:43.948Z,41.03
2023-03-16T21:59:12.279Z,41.63
2023-03-16T22:01:54.618Z,43.65
2023-03-16T22:04:30.620Z,42.97
2023-03-16T22:06:58.827Z,36.60
2023-03-16T22:09:30.038Z,31.60
2023-03-16T22:11:58.524Z,39.00
2023-03-16T22:14:27.114Z,39.03
2023-03-16T22:16:55.794Z,37.65
2023-03-16T22:19:23.786Z,38.60
2023-03-16T22:21:53.534Z,37.35
2023-03-16T22:24:24.602Z,37.80
2023-03-16T22:26:53.653Z,37.53
2023-03-16T22:29:25.529Z,36.53
2023-03-16T22:31:57.716Z,34.75
2023-03-16T22:34:29.289Z,34.88
2023-03-16T22:36:59.465Z,35.72
2023-03-16T22:39:27.826Z,35.63
2023-03-16T22:41:56.075Z,35.72
2023-03-16T22:44:24.866Z,34.70
2023-03-16T22:46:53.054Z,34.72
2023-03-16T22:49:22.309Z,37.58
2023-03-16T22:51:51.387Z,38.03
2023-03-16T22:54:22.265Z,39.05
2023-03-16T22:56:51.296Z,40.95
2023-03-16T22:59:21.430Z,41.72
2023-03-16T23:01:51.134Z,40.47
2023-03-16T23:04:20.889Z,39.45
2023-03-16T23:06:50.902Z,44.38
2023-03-16T23:09:21.852Z,41.58
2023-03-16T23:11:53.848Z,40.33
2023-03-16T23:14:24.047Z,40.28
2023-03-16T23:16:53.562Z,40.42
2023-03-16T23:19:25.211Z,43.00
2023-03-16T23:21:55.510Z,43.70
2023-03-16T23:24:25.313Z,39.95
2023-03-16T23:26:54.709Z,40.92
2023-03-16T23:29:23.558Z,38.50
2023-03-16T23:31:51.849Z,38.53
2023-03-16T23:34:22.585Z,39.35
2023-03-16T23:36:50.900Z,38.55
2023-03-16T23:39:19.504Z,42.35
2023-03-16T23:41:49.983Z,43.75
2023-03-16T23:44:18.814Z,46.60
2023-03-16T23:46:47.408Z,46.08
2023-03-16T23:49:23.028Z,49.05
2023-03-16T23:51:51.844Z,47.00
2023-03-16T23:54:21.392Z,46.92
2023-03-16T23:56:51.446Z,47.53
2023-03-16T23:59:20.830Z,48.50
